createdAt,value
2023-05-19T00:00:59.029Z,4.50
2023-05-19T00:03:27.241Z,4.45
2023-05-19T00:05:54.204Z,4.78
2023-05-19T00:08:24.323Z,4.82
2023-05-19T00:10:51.019Z,4.30
2023-05-19T00:13:17.784Z,4.37
2023-05-19T00:15:44.594Z,4.75
2023-05-19T00:18:14.043Z,4.65
2023-05-19T00:20:41.359Z,4.75
2023-05-19T00:23:07.884Z,4.78
2023-05-19T00:25:34.347Z,5.50
2023-05-19T00:28:02.386Z,5.10
2023-05-19T00:33:11.267Z,4.30
2023-05-19T00:35:37.799Z,4.55
2023-05-19T00:38:04.350Z,4.70
2023-05-19T00:40:32.013Z,4.28
2023-05-19T00:42:58.757Z,4.45
2023-05-19T00:45:25.356Z,4.45
2023-05-19T00:47:51.878Z,4.65
2023-05-19T00:50:18.479Z,4.73
2023-05-19T00:52:45.108Z,4.22
2023-05-19T00:55:12.138Z,4.35
2023-05-19T00:57:38.829Z,4.20
2023-05-19T01:00:06.113Z,4.72
2023-05-19T01:02:32.982Z,4.70
2023-05-19T01:04:59.755Z,4.57
2023-05-19T01:07:27.324Z,4.53
2023-05-19T01:09:54.097Z,4.35
2023-05-19T01:12:20.858Z,4.40
2023-05-19T01:14:47.697Z,4.47
2023-05-19T01:17:30.500Z,4.50
2023-05-19T01:20:18.350Z,4.28
2023-05-19T01:23:00.298Z,4.32
2023-05-19T01:25:45.629Z,4.32
2023-05-19T01:28:30.380Z,4.53
2023-05-19T01:31:00.019Z,4.55
2023-05-19T01:33:29.911Z,4.60
2023-05-19T01:35:57.824Z,4.47
2023-05-19T01:38:25.791Z,4.40
2023-05-19T01:40:53.812Z,4.50
2023-05-19T01:43:23.888Z,4.50
2023-05-19T01:45:51.561Z,5.00
2023-05-19T01:48:19.065Z,4.90
2023-05-19T01:50:46.768Z,5.00
2023-05-19T01:53:13.448Z,4.40
2023-05-19T01:55:48.028Z,4.80
2023-05-19T01:58:17.591Z,5.70
2023-05-19T02:00:54.271Z,4.55
2023-05-19T02:03:42.688Z,6.10
2023-05-19T02:06:31.540Z,3.73
2023-05-19T02:09:03.769Z,5.75
2023-05-19T02:11:38.189Z,4.80
2023-05-19T02:14:20.610Z,4.22
2023-05-19T02:16:48.700Z,4.40
2023-05-19T02:19:32.639Z,4.37
2023-05-19T02:21:59.761Z,4.70
2023-05-19T02:24:26.673Z,4.80
2023-05-19T02:26:53.957Z,4.38
2023-05-19T02:29:21.142Z,3.92
2023-05-19T02:31:48.061Z,4.13
2023-05-19T02:34:14.844Z,3.92
2023-05-19T02:36:45.702Z,4.50
2023-05-19T02:39:12.866Z,4.40
2023-05-19T02:41:39.349Z,4.07
2023-05-19T02:44:05.892Z,4.20
2023-05-19T02:46:32.653Z,4.30
2023-05-19T02:48:59.532Z,4.20
2023-05-19T02:51:26.018Z,4.25
2023-05-19T02:53:52.620Z,4.40
2023-05-19T02:56:19.137Z,4.50
2023-05-19T02:58:45.667Z,4.38
2023-05-19T03:01:12.230Z,4.78
2023-05-19T03:03:38.795Z,4.57
2023-05-19T03:06:08.600Z,4.85
2023-05-19T03:08:36.154Z,8.60
2023-05-19T03:11:03.507Z,6.80
2023-05-19T03:13:30.124Z,7.05
2023-05-19T03:15:58.681Z,4.90
2023-05-19T03:18:26.440Z,11.93
2023-05-19T03:20:56.432Z,5.70
2023-05-19T03:23:22.908Z,5.03
2023-05-19T03:25:49.464Z,4.82
2023-05-19T03:28:17.129Z,4.25
2023-05-19T03:30:43.612Z,4.88
2023-05-19T03:33:10.228Z,6.60
2023-05-19T03:35:36.983Z,4.97
2023-05-19T03:38:03.425Z,5.70
2023-05-19T03:40:30.147Z,5.50
2023-05-19T03:42:56.733Z,5.80
2023-05-19T03:45:23.186Z,5.37
2023-05-19T03:47:49.776Z,4.72
2023-05-19T03:50:16.594Z,4.93
2023-05-19T03:52:45.482Z,4.85
2023-05-19T03:55:12.534Z,5.70
2023-05-19T03:57:39.045Z,4.80
2023-05-19T04:00:06.212Z,4.70
2023-05-19T04:02:32.700Z,4.70
2023-05-19T04:04:59.255Z,4.75
2023-05-19T04:07:25.787Z,5.30
2023-05-19T04:09:52.347Z,4.73
2023-05-19T04:12:18.758Z,4.80
2023-05-19T04:14:45.257Z,4.85
2023-05-19T04:17:12.057Z,4.68
2023-05-19T04:19:38.560Z,4.80
2023-05-19T04:22:05.300Z,4.60
2023-05-19T04:24:31.993Z,4.63
2023-05-19T04:27:02.662Z,4.47
2023-05-19T04:29:29.643Z,5.30
2023-05-19T04:31:57.194Z,4.82
2023-05-19T04:34:23.653Z,4.70
2023-05-19T04:36:53.137Z,4.85
2023-05-19T04:39:20.141Z,4.93
2023-05-19T04:41:46.721Z,4.45
2023-05-19T04:44:13.620Z,4.40
2023-05-19T04:46:40.268Z,5.23
2023-05-19T04:49:07.884Z,5.20
2023-05-19T04:51:35.750Z,5.47
2023-05-19T04:54:02.378Z,4.60
2023-05-19T04:56:29.998Z,4.22
2023-05-19T04:58:56.675Z,4.70
2023-05-19T05:01:26.194Z,4.95
2023-05-19T05:03:55.265Z,4.65
2023-05-19T05:06:26.854Z,4.45
2023-05-19T05:08:53.380Z,4.40
2023-05-19T05:11:20.784Z,4.57
2023-05-19T05:13:47.951Z,5.30
2023-05-19T05:16:15.039Z,4.25
2023-05-19T05:18:44.351Z,5.07
2023-05-19T05:21:12.305Z,4.70
2023-05-19T05:23:39.299Z,4.00
2023-05-19T05:26:18.080Z,4.00
2023-05-19T05:28:44.632Z,3.90
2023-05-19T05:31:11.749Z,3.78
2023-05-19T05:33:38.920Z,3.58
2023-05-19T05:36:05.851Z,3.40
2023-05-19T05:38:32.684Z,3.60
2023-05-19T05:40:59.276Z,3.92
2023-05-19T05:43:25.756Z,3.45
2023-05-19T05:45:52.296Z,4.68
2023-05-19T05:48:19.175Z,3.30
2023-05-19T05:50:45.864Z,3.55
2023-05-19T05:53:19.574Z,3.20
2023-05-19T05:55:47.200Z,3.30
2023-05-19T05:58:15.810Z,3.30
2023-05-19T06:00:48.549Z,3.20
2023-05-19T06:03:16.954Z,3.00
2023-05-19T06:05:43.730Z,3.03
2023-05-19T06:08:10.452Z,2.85
2023-05-19T06:10:38.834Z,3.22
2023-05-19T06:13:05.553Z,3.30
2023-05-19T06:15:32.102Z,3.45
2023-05-19T06:17:59.219Z,2.80
2023-05-19T06:20:26.307Z,2.80
2023-05-19T06:22:52.820Z,3.50
2023-05-19T06:25:20.513Z,3.00
2023-05-19T06:27:47.104Z,2.97
2023-05-19T06:30:13.936Z,3.42
2023-05-19T06:32:40.876Z,3.08
2023-05-19T06:35:07.784Z,3.28
2023-05-19T06:37:34.321Z,2.80
2023-05-19T06:40:00.808Z,2.72
2023-05-19T06:42:31.308Z,2.60
2023-05-19T06:44:58.044Z,2.90
2023-05-19T06:47:24.636Z,2.75
2023-05-19T06:49:54.954Z,2.80
2023-05-19T06:52:22.684Z,2.60
2023-05-19T06:54:49.661Z,2.90
2023-05-19T06:57:16.357Z,2.78
2023-05-19T06:59:43.697Z,3.08
2023-05-19T07:02:10.479Z,4.80
2023-05-19T07:04:37.220Z,2.60
2023-05-19T07:07:03.977Z,3.00
2023-05-19T07:09:30.669Z,2.55
2023-05-19T07:11:57.239Z,2.60
2023-05-19T07:14:23.951Z,2.90
2023-05-19T07:16:50.605Z,2.67
2023-05-19T07:19:20.287Z,3.00
2023-05-19T07:21:47.599Z,2.50
2023-05-19T07:24:14.212Z,2.60
2023-05-19T07:26:41.543Z,2.80
2023-05-19T07:29:08.221Z,2.20
2023-05-19T07:31:34.844Z,2.67
2023-05-19T07:34:01.401Z,2.38
2023-05-19T07:36:27.953Z,2.60
2023-05-19T07:38:54.566Z,2.40
2023-05-19T07:41:21.784Z,2.45
2023-05-19T07:43:48.873Z,2.50
2023-05-19T07:46:15.974Z,2.40
2023-05-19T07:48:42.558Z,2.38
2023-05-19T07:51:10.207Z,2.30
2023-05-19T07:53:37.241Z,2.45
2023-05-19T07:56:04.135Z,2.55
2023-05-19T07:58:30.965Z,2.42
2023-05-19T08:01:00.760Z,2.70
2023-05-19T08:03:27.665Z,2.60
2023-05-19T08:05:54.452Z,2.30
2023-05-19T08:08:21.939Z,2.30
2023-05-19T08:10:48.503Z,2.83
2023-05-19T08:13:15.077Z,2.40
2023-05-19T08:15:41.627Z,2.70
2023-05-19T08:18:08.319Z,2.47
2023-05-19T08:20:35.155Z,2.50
2023-05-19T08:23:01.970Z,2.50
2023-05-19T08:25:28.594Z,2.28
2023-05-19T08:27:55.152Z,2.50
2023-05-19T08:30:21.899Z,2.30
2023-05-19T08:32:48.813Z,3.08
2023-05-19T08:35:15.652Z,2.30
2023-05-19T08:37:42.218Z,2.63
2023-05-19T08:40:15.933Z,2.43
2023-05-19T08:42:42.541Z,2.22
2023-05-19T08:45:09.568Z,2.17
2023-05-19T08:47:36.551Z,2.22
2023-05-19T08:50:08.006Z,2.90
2023-05-19T08:52:53.683Z,2.50
2023-05-19T08:55:29.266Z,2.42
2023-05-19T08:57:56.412Z,2.90
2023-05-19T09:00:23.626Z,2.38
2023-05-19T09:03:00.727Z,2.30
2023-05-19T09:05:33.358Z,2.60
2023-05-19T09:08:02.715Z,2.10
2023-05-19T09:10:29.534Z,2.65
2023-05-19T09:12:56.450Z,2.88
2023-05-19T09:15:27.458Z,2.78
2023-05-19T09:18:07.929Z,2.37
2023-05-19T09:20:39.348Z,2.22
2023-05-19T09:23:06.323Z,2.30
2023-05-19T09:25:32.876Z,2.15
2023-05-19T09:27:59.664Z,2.13
2023-05-19T09:30:26.230Z,2.40
2023-05-19T09:32:52.852Z,1.98
2023-05-19T09:35:21.589Z,2.10
2023-05-19T09:37:48.285Z,2.00
2023-05-19T09:40:15.715Z,2.65
2023-05-19T09:42:44.090Z,2.00
2023-05-19T09:45:11.308Z,1.98
2023-05-19T09:47:39.598Z,2.55
2023-05-19T09:50:08.520Z,2.15
2023-05-19T09:52:38.823Z,2.40
2023-05-19T09:55:08.802Z,2.30
2023-05-19T09:57:40.143Z,2.20
2023-05-19T10:00:12.027Z,2.20
2023-05-19T10:02:42.743Z,2.58
2023-05-19T10:05:12.876Z,2.33
2023-05-19T10:07:40.609Z,2.40
2023-05-19T10:10:09.816Z,2.17
2023-05-19T10:12:38.009Z,2.60
2023-05-19T10:15:05.390Z,2.33
2023-05-19T10:17:32.638Z,2.70
2023-05-19T10:19:59.516Z,2.27
2023-05-19T10:22:26.189Z,2.95
2023-05-19T10:24:52.747Z,2.30
2023-05-19T10:27:19.952Z,2.30
2023-05-19T10:29:50.748Z,2.40
2023-05-19T10:32:23.487Z,2.13
2023-05-19T10:35:08.854Z,2.50
2023-05-19T10:37:46.249Z,2.72
2023-05-19T10:40:21.724Z,2.45
2023-05-19T10:43:01.865Z,2.40
2023-05-19T10:45:34.451Z,2.33
2023-05-19T10:48:01.432Z,2.40
2023-05-19T10:50:37.675Z,2.30
2023-05-19T10:53:04.203Z,2.60
2023-05-19T10:55:49.995Z,2.25
2023-05-19T10:58:37.047Z,2.40
2023-05-19T11:01:08.035Z,2.50
2023-05-19T11:03:45.951Z,2.70
2023-05-19T11:06:21.743Z,2.20
2023-05-19T11:08:53.483Z,2.72
2023-05-19T11:11:21.143Z,2.50
2023-05-19T11:13:51.808Z,2.28
2023-05-19T11:16:20.668Z,2.80
2023-05-19T11:18:50.454Z,2.40
2023-05-19T11:21:19.716Z,2.40
2023-05-19T11:23:46.304Z,2.60
2023-05-19T11:26:13.061Z,2.35
2023-05-19T11:28:40.783Z,2.40
2023-05-19T11:31:10.385Z,2.30
2023-05-19T11:33:37.877Z,2.60
2023-05-19T11:36:04.979Z,2.50
2023-05-19T11:38:32.631Z,2.67
2023-05-19T11:41:00.704Z,2.70
2023-05-19T11:43:27.533Z,2.35
2023-05-19T11:45:55.898Z,2.50
2023-05-19T11:48:23.347Z,2.50
2023-05-19T11:50:50.871Z,2.50
2023-05-19T11:53:19.507Z,2.20
2023-05-19T11:55:47.839Z,2.50
2023-05-19T11:58:14.990Z,2.67
2023-05-19T12:00:45.850Z,2.60
2023-05-19T12:03:13.092Z,2.40
2023-05-19T12:05:49.020Z,2.42
2023-05-19T12:08:19.464Z,2.40
2023-05-19T12:10:50.654Z,2.50
2023-05-19T12:13:17.426Z,2.70
2023-05-19T12:15:44.287Z,2.53
2023-05-19T12:18:10.925Z,2.70
2023-05-19T12:20:37.764Z,2.33
2023-05-19T12:23:05.007Z,2.67
2023-05-19T12:25:32.564Z,2.40
2023-05-19T12:28:00.895Z,2.60
2023-05-19T12:30:29.098Z,2.63
2023-05-19T12:32:59.147Z,3.05
2023-05-19T12:35:30.447Z,2.42
2023-05-19T12:37:57.622Z,2.30
2023-05-19T12:40:24.177Z,2.50
2023-05-19T12:42:53.238Z,2.80
2023-05-19T12:45:23.124Z,2.60
2023-05-19T12:47:50.408Z,2.65
2023-05-19T12:50:17.041Z,2.40
2023-05-19T12:52:47.969Z,2.90
2023-05-19T12:55:16.529Z,2.65
2023-05-19T12:57:48.714Z,2.45
2023-05-19T13:00:21.979Z,2.50
2023-05-19T13:02:57.701Z,2.60
2023-05-19T13:05:24.750Z,2.35
2023-05-19T13:08:02.163Z,2.60
2023-05-19T13:10:29.772Z,3.13
2023-05-19T13:12:57.834Z,2.50
2023-05-19T13:15:29.514Z,2.97
2023-05-19T13:17:56.084Z,2.50
2023-05-19T13:20:24.278Z,2.60
2023-05-19T13:22:51.628Z,2.70
2023-05-19T13:25:18.255Z,3.10
2023-05-19T13:27:46.054Z,2.60
2023-05-19T13:30:12.765Z,2.60
2023-05-19T13:32:39.518Z,2.80
2023-05-19T13:35:06.663Z,2.70
2023-05-19T13:37:33.600Z,2.58
2023-05-19T13:40:00.221Z,2.50
2023-05-19T13:42:26.817Z,3.10
2023-05-19T13:44:58.980Z,3.40
2023-05-19T13:47:25.771Z,2.53
2023-05-19T13:49:53.040Z,2.60
2023-05-19T13:52:21.164Z,2.87
2023-05-19T13:54:48.504Z,2.50
2023-05-19T13:57:18.021Z,2.90
2023-05-19T14:00:00.309Z,3.05
2023-05-19T14:02:30.029Z,3.10
2023-05-19T14:04:57.015Z,3.00
2023-05-19T14:07:23.656Z,2.85
2023-05-19T14:09:51.203Z,3.25
2023-05-19T14:12:17.904Z,2.90
2023-05-19T14:14:44.651Z,2.80
2023-05-19T14:17:12.143Z,2.80
2023-05-19T14:19:38.829Z,2.60
2023-05-19T14:22:05.493Z,2.65
2023-05-19T14:24:32.106Z,2.60
2023-05-19T14:26:58.879Z,2.60
2023-05-19T14:29:25.699Z,3.07
2023-05-19T14:31:52.239Z,3.00
2023-05-19T14:34:21.083Z,2.70
2023-05-19T14:36:48.620Z,3.67
2023-05-19T14:39:15.593Z,3.08
2023-05-19T14:41:42.149Z,2.70
2023-05-19T14:44:08.724Z,2.67
2023-05-19T14:46:35.371Z,2.95
2023-05-19T14:49:03.199Z,2.67
2023-05-19T14:51:29.659Z,2.60
2023-05-19T14:53:56.103Z,4.07
2023-05-19T14:56:22.763Z,2.90
2023-05-19T14:58:49.278Z,4.85
2023-05-19T15:01:15.770Z,3.85
2023-05-19T15:03:42.452Z,3.35
2023-05-19T15:06:11.988Z,2.73
2023-05-19T15:08:40.612Z,2.80
2023-05-19T15:11:07.747Z,2.72
2023-05-19T15:13:34.302Z,3.10
2023-05-19T15:16:15.552Z,3.08
2023-05-19T15:18:43.764Z,3.90
2023-05-19T15:21:10.561Z,3.83
2023-05-19T15:23:37.093Z,2.72
2023-05-19T15:26:03.860Z,2.78
2023-05-19T15:28:30.470Z,3.08
2023-05-19T15:30:56.948Z,3.30
2023-05-19T15:33:23.503Z,3.28
2023-05-19T15:35:53.341Z,2.67
2023-05-19T15:38:20.181Z,2.40
2023-05-19T15:40:47.077Z,2.20
2023-05-19T15:43:13.862Z,2.50
2023-05-19T15:45:40.811Z,3.08
2023-05-19T15:48:07.845Z,2.85
2023-05-19T15:50:34.552Z,3.30
2023-05-19T15:53:01.810Z,3.17
2023-05-19T15:55:28.468Z,2.40
2023-05-19T15:57:55.080Z,2.55
2023-05-19T16:00:21.641Z,2.40
2023-05-19T16:02:48.304Z,2.30
2023-05-19T16:05:14.794Z,2.22
2023-05-19T16:07:42.151Z,2.70
2023-05-19T16:10:09.250Z,2.53
2023-05-19T16:12:36.702Z,2.40
2023-05-19T16:15:03.656Z,2.30
2023-05-19T16:17:30.289Z,2.30
2023-05-19T16:19:56.860Z,2.40
2023-05-19T16:22:24.842Z,2.60
2023-05-19T16:24:52.253Z,2.50
2023-05-19T16:27:19.168Z,3.13
2023-05-19T16:29:45.873Z,3.22
2023-05-19T16:32:12.892Z,2.50
2023-05-19T16:34:39.686Z,2.60
2023-05-19T16:37:06.242Z,3.00
2023-05-19T16:39:32.885Z,2.78
2023-05-19T16:41:59.410Z,2.50
2023-05-19T16:44:26.261Z,2.50
2023-05-19T16:46:52.822Z,3.00
2023-05-19T16:49:19.328Z,2.30
2023-05-19T16:51:46.905Z,2.63
2023-05-19T16:54:15.369Z,2.50
2023-05-19T16:56:41.829Z,2.33
2023-05-19T16:59:09.682Z,2.50
2023-05-19T17:01:36.278Z,2.95
2023-05-19T17:04:02.930Z,2.63
2023-05-19T17:06:29.539Z,2.63
2023-05-19T17:08:56.058Z,2.50
2023-05-19T17:11:22.667Z,2.25
2023-05-19T17:13:49.296Z,2.30
2023-05-19T17:16:16.020Z,2.15
2023-05-19T17:18:43.713Z,2.47
2023-05-19T17:21:10.603Z,2.30
2023-05-19T17:23:37.857Z,2.17
2023-05-19T17:26:04.795Z,2.45
2023-05-19T17:28:31.737Z,2.17
2023-05-19T17:30:58.292Z,6.88
2023-05-19T17:33:24.996Z,2.57
2023-05-19T17:35:51.670Z,2.13
2023-05-19T17:38:18.222Z,2.28
2023-05-19T17:40:44.770Z,2.00
2023-05-19T17:43:11.316Z,2.30
2023-05-19T17:45:37.829Z,2.10
2023-05-19T17:48:05.050Z,2.10
2023-05-19T17:50:31.891Z,2.40
2023-05-19T17:52:58.844Z,2.10
2023-05-19T17:55:29.706Z,2.35
2023-05-19T17:57:57.464Z,2.30
2023-05-19T18:00:25.017Z,2.58
2023-05-19T18:02:52.032Z,2.20
2023-05-19T18:05:18.984Z,2.00
2023-05-19T18:07:45.692Z,1.98
2023-05-19T18:10:15.357Z,2.23
2023-05-19T18:12:41.964Z,2.15
2023-05-19T18:15:08.950Z,2.40
2023-05-19T18:17:35.572Z,2.20
2023-05-19T18:20:02.579Z,2.33
2023-05-19T18:22:29.161Z,2.03
2023-05-19T18:24:57.588Z,2.38
2023-05-19T18:27:24.179Z,2.58
2023-05-19T18:29:50.647Z,2.38
2023-05-19T18:32:17.786Z,2.08
2023-05-19T18:34:44.679Z,2.10
2023-05-19T18:37:11.199Z,2.20
2023-05-19T18:39:37.674Z,3.72
2023-05-19T18:42:04.348Z,2.15
2023-05-19T18:44:31.058Z,2.30
2023-05-19T18:46:58.772Z,2.20
2023-05-19T18:49:25.352Z,2.60
2023-05-19T18:51:52.151Z,2.63
2023-05-19T18:54:20.383Z,2.28
2023-05-19T18:56:46.980Z,2.70
2023-05-19T18:59:13.501Z,2.70
2023-05-19T19:01:40.152Z,2.50
2023-05-19T19:04:06.851Z,2.58
2023-05-19T19:06:33.499Z,2.20
2023-05-19T19:09:00.071Z,2.42
2023-05-19T19:11:26.721Z,2.50
2023-05-19T19:13:55.456Z,2.42
2023-05-19T19:16:22.403Z,2.40
2023-05-19T19:18:49.164Z,2.85
2023-05-19T19:21:15.650Z,2.42
2023-05-19T19:23:42.135Z,2.80
2023-05-19T19:26:09.574Z,2.80
2023-05-19T19:28:36.450Z,2.63
2023-05-19T19:31:03.174Z,2.60
2023-05-19T19:33:29.645Z,2.45
2023-05-19T19:35:56.489Z,2.17
2023-05-19T19:38:23.062Z,2.30
2023-05-19T19:40:51.924Z,2.13
2023-05-19T19:43:18.706Z,2.30
2023-05-19T19:45:45.434Z,2.53
2023-05-19T19:48:12.723Z,2.27
2023-05-19T19:50:39.316Z,2.10
2023-05-19T19:53:05.755Z,2.75
2023-05-19T19:55:35.075Z,2.20
2023-05-19T19:58:01.580Z,2.55
2023-05-19T20:00:28.072Z,2.10
2023-05-19T20:03:03.571Z,2.50
2023-05-19T20:05:32.557Z,2.30
2023-05-19T20:07:59.125Z,2.22
2023-05-19T20:10:25.719Z,3.40
2023-05-19T20:12:52.387Z,20.43
2023-05-19T20:15:19.291Z,15.73
2023-05-19T20:17:45.896Z,3.47
2023-05-19T20:20:12.916Z,2.65
2023-05-19T20:22:39.474Z,2.47
2023-05-19T20:25:06.531Z,2.30
2023-05-19T20:27:33.043Z,2.65
2023-05-19T20:29:59.561Z,3.92
2023-05-19T20:32:26.083Z,3.20
2023-05-19T20:34:52.655Z,9.07
2023-05-19T20:37:19.124Z,5.93
2023-05-19T20:39:45.645Z,2.80
2023-05-19T20:42:12.260Z,2.60
2023-05-19T20:44:38.823Z,2.60
2023-05-19T20:47:07.921Z,2.67
2023-05-19T20:49:34.889Z,2.60
2023-05-19T20:52:01.506Z,2.88
2023-05-19T20:54:28.079Z,2.90
2023-05-19T20:56:54.754Z,3.03
2023-05-19T20:59:21.362Z,2.80
2023-05-19T21:01:48.036Z,2.63
2023-05-19T21:04:14.617Z,3.03
2023-05-19T21:06:41.196Z,2.90
2023-05-19T21:09:07.821Z,3.08
2023-05-19T21:11:34.355Z,3.10
2023-05-19T21:14:04.207Z,2.43
2023-05-19T21:16:31.524Z,3.22
2023-05-19T21:18:58.301Z,3.05
2023-05-19T21:21:25.209Z,2.75
2023-05-19T21:23:51.879Z,2.88
2023-05-19T21:26:18.383Z,3.00
2023-05-19T21:28:44.885Z,2.85
2023-05-19T21:31:11.393Z,3.53
2023-05-19T21:33:37.934Z,2.85
2023-05-19T21:36:04.687Z,3.88
2023-05-19T21:38:31.163Z,2.97
2023-05-19T21:40:57.682Z,3.03
2023-05-19T21:43:24.117Z,3.13
2023-05-19T21:45:50.721Z,2.97
2023-05-19T21:48:17.436Z,3.10
2023-05-19T21:50:44.330Z,2.50
2023-05-19T21:53:10.799Z,3.03
2023-05-19T21:55:37.344Z,3.03
2023-05-19T21:58:03.862Z,3.22
2023-05-19T22:00:30.437Z,2.83
2023-05-19T22:02:57.078Z,3.20
2023-05-19T22:05:23.615Z,2.92
2023-05-19T22:07:50.139Z,2.97
2023-05-19T22:10:17.389Z,3.20
2023-05-19T22:12:43.903Z,2.88
2023-05-19T22:15:11.412Z,2.80
2023-05-19T22:17:37.930Z,2.80
2023-05-19T22:20:05.094Z,2.85
2023-05-19T22:22:31.581Z,2.80
2023-05-19T22:24:58.515Z,2.70
2023-05-19T22:27:25.149Z,2.87
2023-05-19T22:29:51.651Z,3.05
2023-05-19T22:32:19.500Z,2.85
2023-05-19T22:34:46.348Z,2.70
2023-05-19T22:37:13.140Z,3.13
2023-05-19T22:39:39.688Z,2.70
2023-05-19T22:42:06.186Z,2.80
2023-05-19T22:44:32.638Z,2.90
2023-05-19T22:46:59.055Z,2.90
2023-05-19T22:49:27.319Z,3.20
2023-05-19T22:51:53.800Z,2.80
2023-05-19T22:54:20.388Z,3.03
2023-05-19T22:56:48.718Z,3.15
2023-05-19T22:59:17.904Z,3.00
2023-05-19T23:01:46.510Z,3.03
2023-05-19T23:04:23.208Z,2.93
2023-05-19T23:06:50.271Z,2.95
2023-05-19T23:09:17.933Z,2.90
2023-05-19T23:11:45.126Z,3.17
2023-05-19T23:14:11.677Z,3.17
2023-05-19T23:16:38.239Z,3.00
2023-05-19T23:19:05.043Z,3.08
2023-05-19T23:21:32.480Z,3.20
2023-05-19T23:23:59.534Z,3.10
2023-05-19T23:26:26.880Z,3.17
2023-05-19T23:28:53.373Z,3.30
2023-05-19T23:31:19.982Z,3.40
2023-05-19T23:33:46.423Z,3.10
2023-05-19T23:36:12.944Z,3.13
2023-05-19T23:38:39.545Z,3.08
2023-05-19T23:41:06.060Z,2.80
2023-05-19T23:43:32.863Z,3.00
2023-05-19T23:45:59.634Z,3.10
2023-05-19T23:48:29.089Z,3.22
2023-05-19T23:50:55.727Z,3.17
2023-05-19T23:53:22.389Z,3.23
2023-05-19T23:55:48.874Z,3.20
2023-05-19T23:58:15.977Z,3.00
